createdAt,value
2022-12-23T00:02:09.996Z,21.58
2022-12-23T00:04:45.889Z,25.02
2022-12-23T00:10:05.131Z,21.00
2022-12-23T00:13:04.951Z,28.23
2022-12-23T00:15:39.166Z,19.30
2022-12-23T00:18:13.699Z,17.13
2022-12-23T00:20:51.079Z,18.65
2022-12-23T00:23:26.928Z,24.88
2022-12-23T00:26:07.665Z,20.73
2022-12-23T00:28:48.120Z,19.20
2022-12-23T00:34:16.372Z,20.70
2022-12-23T00:36:51.190Z,19.42
2022-12-23T00:40:14.345Z,20.58
2022-12-23T00:43:10.169Z,21.80
2022-12-23T00:48:50.529Z,25.48
2022-12-23T00:51:17.309Z,14.00
2022-12-23T00:53:52.882Z,24.23
2022-12-23T00:56:21.345Z,19.40
2022-12-23T01:02:18.574Z,16.45
2022-12-23T01:05:07.664Z,21.63
2022-12-23T01:07:51.288Z,22.23
2022-12-23T01:10:21.662Z,18.63
2022-12-23T01:13:10.708Z,21.20
2022-12-23T01:16:17.239Z,18.88
2022-12-23T01:18:57.847Z,13.88
2022-12-23T01:21:44.597Z,15.50
2022-12-23T01:24:17.749Z,5.17
2022-12-23T01:26:45.899Z,15.50
2022-12-23T01:29:22.988Z,11.35
2022-12-23T01:31:54.951Z,12.50
2022-12-23T01:34:36.709Z,9.82
2022-12-23T01:37:07.160Z,5.85
2022-12-23T01:39:42.131Z,6.88
2022-12-23T01:42:43.014Z,5.90
2022-12-23T01:45:41.483Z,9.77
2022-12-23T01:51:30.920Z,2.67
2022-12-23T01:54:12.440Z,8.52
2022-12-23T01:56:53.208Z,4.15
2022-12-23T01:59:38.582Z,3.97
2022-12-23T02:02:32.337Z,5.35
2022-12-23T02:05:07.909Z,5.72
2022-12-23T02:08:08.873Z,6.28
2022-12-23T02:10:51.515Z,4.28
2022-12-23T02:14:09.812Z,4.35
2022-12-23T02:16:48.720Z,4.47
2022-12-23T02:19:32.177Z,4.68
2022-12-23T02:22:21.365Z,10.38
2022-12-23T02:25:22.882Z,5.60
2022-12-23T02:28:11.987Z,5.85
2022-12-23T02:37:01.240Z,7.85
2022-12-23T02:39:34.041Z,6.97
2022-12-23T02:42:14.489Z,8.20
2022-12-23T02:48:04.622Z,6.13
2022-12-23T02:50:45.531Z,6.28
2022-12-23T02:53:23.065Z,8.65
2022-12-23T02:55:59.273Z,5.75
2022-12-23T02:58:47.122Z,9.05
2022-12-23T03:01:19.126Z,11.88
2022-12-23T03:04:02.256Z,9.90
2022-12-23T03:09:51.773Z,10.40
2022-12-23T03:13:03.263Z,12.77
2022-12-23T03:22:50.265Z,12.65
2022-12-23T03:25:42.692Z,13.20
2022-12-23T03:28:22.030Z,11.95
2022-12-23T03:31:02.270Z,7.40
2022-12-23T03:34:48.065Z,8.45
2022-12-23T03:37:21.204Z,5.60
2022-12-23T03:39:54.281Z,5.43
2022-12-23T03:42:31.523Z,3.85
2022-12-23T03:45:38.185Z,10.93
2022-12-23T03:48:29.983Z,12.18
2022-12-23T03:51:19.827Z,12.63
2022-12-23T03:54:52.536Z,10.32
2022-12-23T03:57:42.167Z,11.55
2022-12-23T04:00:20.937Z,12.05
2022-12-23T04:03:16.595Z,11.43
2022-12-23T04:06:07.967Z,13.38
2022-12-23T04:08:37.887Z,13.07
2022-12-23T04:11:17.793Z,14.98
2022-12-23T04:13:50.665Z,10.40
2022-12-23T04:16:24.668Z,12.57
2022-12-23T04:18:51.541Z,12.45
2022-12-23T04:21:38.915Z,13.10
2022-12-23T04:24:10.731Z,9.90
2022-12-23T04:27:01.645Z,7.63
2022-12-23T04:29:28.338Z,13.10
2022-12-23T04:31:59.803Z,10.20
2022-12-23T04:34:26.851Z,6.88
2022-12-23T04:36:57.612Z,10.97
2022-12-23T04:39:26.455Z,11.80
2022-12-23T04:41:56.109Z,7.43
2022-12-23T04:44:25.002Z,7.10
2022-12-23T04:46:58.172Z,7.68
2022-12-23T04:49:29.440Z,6.07
2022-12-23T04:52:05.161Z,5.20
2022-12-23T04:54:46.193Z,6.43
2022-12-23T04:57:16.925Z,9.18
2022-12-23T04:59:51.966Z,8.02
2022-12-23T05:02:28.808Z,7.57
2022-12-23T05:05:03.070Z,4.17
2022-12-23T05:07:41.243Z,7.20
2022-12-23T05:10:09.010Z,5.68
2022-12-23T05:12:49.367Z,8.82
2022-12-23T05:15:23.377Z,5.40
2022-12-23T05:20:45.224Z,6.53
2022-12-23T05:23:18.949Z,6.90
2022-12-23T05:26:04.933Z,7.85
2022-12-23T05:28:56.656Z,3.20
2022-12-23T05:31:42.470Z,7.18
2022-12-23T05:34:26.698Z,4.03
2022-12-23T05:37:06.999Z,3.83
2022-12-23T05:40:28.167Z,6.03
2022-12-23T05:45:52.562Z,5.25
2022-12-23T05:48:31.542Z,8.25
2022-12-23T05:50:58.502Z,8.95
2022-12-23T05:56:06.668Z,8.60
2022-12-23T05:58:33.181Z,5.15
2022-12-23T06:01:02.147Z,9.32
2022-12-23T06:03:29.088Z,8.23
2022-12-23T06:05:55.909Z,8.13
2022-12-23T06:08:22.534Z,6.00
2022-12-23T06:10:49.005Z,7.47
2022-12-23T06:13:15.554Z,7.82
2022-12-23T06:15:42.026Z,6.60
2022-12-23T06:18:08.557Z,10.77
2022-12-23T06:20:35.129Z,5.72
2022-12-23T06:23:01.783Z,3.97
2022-12-23T06:25:29.139Z,9.18
2022-12-23T06:27:55.674Z,5.05
2022-12-23T06:30:22.251Z,9.30
2022-12-23T06:32:48.787Z,5.57
2022-12-23T06:35:15.420Z,7.90
2022-12-23T06:37:41.987Z,8.52
2022-12-23T06:40:09.104Z,5.60
2022-12-23T06:42:35.636Z,5.97
2022-12-23T06:45:02.200Z,8.27
2022-12-23T06:47:28.798Z,5.32
2022-12-23T06:49:55.312Z,7.68
2022-12-23T06:52:23.161Z,6.75
2022-12-23T06:57:16.130Z,7.10
2022-12-23T06:59:42.639Z,7.85
2022-12-23T07:02:11.862Z,5.75
2022-12-23T07:04:38.548Z,8.90
2022-12-23T07:07:05.035Z,6.90
2022-12-23T07:09:31.537Z,10.60
2022-12-23T07:11:58.107Z,9.10
2022-12-23T07:14:24.650Z,8.27
2022-12-23T07:16:51.257Z,8.68
2022-12-23T07:19:17.773Z,6.20
2022-12-23T07:21:44.298Z,7.97
2022-12-23T07:24:10.902Z,7.55
2022-12-23T07:26:37.467Z,9.13
2022-12-23T07:33:40.237Z,7.00
2022-12-23T07:36:07.553Z,6.10
2022-12-23T07:38:34.291Z,6.78
2022-12-23T07:41:00.905Z,9.90
2022-12-23T07:43:27.394Z,8.52
2022-12-23T07:45:59.541Z,12.75
2022-12-23T07:48:26.830Z,8.88
2022-12-23T07:50:53.294Z,8.65
2022-12-23T07:53:19.776Z,6.20
2022-12-23T07:55:50.116Z,10.90
2022-12-23T07:58:19.862Z,7.43
2022-12-23T08:00:46.469Z,10.40
2022-12-23T08:03:13.174Z,12.60
2022-12-23T08:05:39.996Z,7.82
2022-12-23T08:08:06.515Z,10.00
2022-12-23T08:10:33.294Z,10.30
2022-12-23T08:13:03.618Z,12.00
2022-12-23T08:15:30.061Z,11.75
2022-12-23T08:17:56.930Z,7.47
2022-12-23T08:20:23.559Z,8.95
2022-12-23T08:22:50.083Z,9.60
2022-12-23T08:25:16.605Z,12.93
2022-12-23T08:27:43.084Z,8.73
2022-12-23T08:30:10.212Z,10.82
2022-12-23T08:32:36.709Z,10.93
2022-12-23T08:35:03.251Z,7.78
2022-12-23T08:37:29.897Z,9.15
2022-12-23T08:39:56.438Z,9.95
2022-12-23T08:42:22.989Z,8.55
2022-12-23T08:44:49.849Z,9.40
2022-12-23T08:47:16.391Z,9.73
2022-12-23T08:49:43.104Z,11.55
2022-12-23T08:52:09.613Z,7.05
2022-12-23T08:54:36.122Z,10.10
2022-12-23T08:57:02.690Z,8.98
2022-12-23T08:59:29.231Z,10.73
2022-12-23T09:01:56.804Z,9.13
2022-12-23T09:04:24.170Z,9.23
2022-12-23T09:06:50.669Z,11.40
2022-12-23T09:09:17.176Z,10.65
2022-12-23T09:11:44.040Z,12.50
2022-12-23T09:14:11.674Z,14.57
2022-12-23T09:16:40.930Z,8.65
2022-12-23T09:19:08.103Z,12.57
2022-12-23T09:21:35.154Z,9.97
2022-12-23T09:24:01.816Z,7.70
2022-12-23T09:26:30.841Z,10.95
2022-12-23T09:28:57.858Z,8.65
2022-12-23T09:31:29.062Z,11.67
2022-12-23T09:33:59.243Z,11.63
2022-12-23T09:36:25.855Z,12.75
2022-12-23T09:38:56.975Z,39.03
2022-12-23T09:41:48.670Z,11.43
2022-12-23T09:53:19.231Z,8.27
2022-12-23T09:56:13.081Z,8.20
2022-12-23T09:58:58.338Z,7.07
2022-12-23T10:01:30.222Z,8.43
2022-12-23T10:04:30.320Z,10.98
2022-12-23T10:07:05.862Z,8.55
2022-12-23T10:09:37.589Z,5.05
2022-12-23T10:12:25.310Z,8.30
2022-12-23T10:32:21.897Z,8.85
2022-12-23T10:35:38.425Z,5.65
2022-12-23T10:38:28.512Z,7.57
2022-12-23T10:41:07.087Z,3.97
2022-12-23T10:43:53.976Z,5.85
2022-12-23T10:46:39.769Z,5.85
2022-12-23T10:52:37.564Z,5.90
2022-12-23T10:55:09.141Z,5.95
2022-12-23T10:57:35.669Z,7.95
2022-12-23T11:00:16.776Z,6.57
2022-12-23T11:03:02.912Z,8.05
2022-12-23T11:05:30.635Z,11.32
2022-12-23T11:07:57.699Z,25.92
2022-12-23T11:10:32.866Z,11.47
2022-12-23T11:13:00.380Z,10.88
2022-12-23T11:15:41.538Z,7.03
2022-12-23T11:18:18.488Z,6.47
2022-12-23T11:21:01.971Z,6.80
2022-12-23T11:23:35.990Z,5.20
2022-12-23T11:26:06.800Z,5.82
2022-12-23T11:28:37.058Z,5.90
2022-12-23T11:31:12.294Z,8.23
2022-12-23T11:33:46.305Z,15.90
2022-12-23T11:36:12.843Z,9.32
2022-12-23T11:38:59.781Z,7.13
2022-12-23T11:41:29.692Z,5.43
2022-12-23T11:44:00.862Z,6.05
2022-12-23T11:46:31.133Z,7.20
2022-12-23T11:49:19.640Z,7.70
2022-12-23T11:51:58.865Z,11.52
2022-12-23T11:54:25.534Z,9.40
2022-12-23T11:56:53.577Z,8.23
2022-12-23T11:59:48.902Z,12.00
2022-12-23T12:02:41.922Z,12.50
2022-12-23T12:05:27.110Z,11.25
2022-12-23T12:08:00.004Z,6.57
2022-12-23T12:10:28.972Z,6.28
2022-12-23T12:12:57.449Z,6.78
2022-12-23T12:15:53.844Z,6.25
2022-12-23T12:21:07.019Z,7.93
2022-12-23T12:23:42.770Z,10.98
2022-12-23T12:29:17.661Z,9.13
2022-12-23T12:31:48.440Z,5.88
2022-12-23T12:34:41.502Z,4.95
2022-12-23T12:40:40.996Z,7.88
2022-12-23T12:43:16.473Z,5.82
2022-12-23T12:45:52.740Z,4.20
2022-12-23T12:48:46.638Z,4.15
2022-12-23T12:51:16.062Z,5.95
2022-12-23T12:54:05.173Z,4.57
2022-12-23T12:59:22.428Z,5.13
2022-12-23T13:05:34.952Z,5.53
2022-12-23T13:08:28.485Z,9.00
2022-12-23T13:11:15.632Z,6.00
2022-12-23T13:13:49.639Z,6.63
2022-12-23T13:16:52.917Z,3.03
2022-12-23T13:19:44.340Z,4.38
2022-12-23T13:22:16.213Z,8.18
2022-12-23T13:25:03.226Z,5.20
2022-12-23T13:28:00.501Z,5.30
2022-12-23T13:30:30.070Z,4.32
2022-12-23T13:33:28.307Z,7.25
2022-12-23T13:36:20.766Z,15.13
2022-12-23T13:39:22.232Z,6.10
2022-12-23T13:41:58.527Z,9.80
2022-12-23T13:44:30.255Z,7.10
2022-12-23T13:47:16.885Z,7.32
2022-12-23T13:50:08.341Z,5.60
2022-12-23T13:53:06.823Z,2.83
2022-12-23T13:55:57.468Z,4.63
2022-12-23T13:58:27.114Z,3.65
2022-12-23T14:01:22.384Z,3.08
2022-12-23T14:03:50.762Z,4.68
2022-12-23T14:06:33.552Z,4.53
2022-12-23T14:09:00.101Z,5.28
2022-12-23T14:11:29.588Z,2.75
2022-12-23T14:13:59.504Z,5.65
2022-12-23T14:16:41.272Z,5.72
2022-12-23T14:19:42.696Z,4.63
2022-12-23T14:22:46.907Z,5.32
2022-12-23T14:25:32.625Z,2.80
2022-12-23T14:28:13.376Z,5.85
2022-12-23T14:30:45.016Z,6.00
2022-12-23T14:33:30.324Z,7.03
2022-12-23T14:35:58.423Z,4.78
2022-12-23T14:38:34.692Z,3.92
2022-12-23T14:41:19.935Z,8.98
2022-12-23T14:43:46.441Z,4.38
2022-12-23T14:46:51.480Z,4.28
2022-12-23T14:49:51.449Z,13.20
2022-12-23T14:52:50.777Z,11.02
2022-12-23T14:55:31.958Z,5.07
2022-12-23T14:58:09.210Z,3.45
2022-12-23T15:00:46.335Z,7.32
2022-12-23T15:03:13.177Z,4.97
2022-12-23T15:05:40.682Z,6.10
2022-12-23T15:08:30.057Z,5.32
2022-12-23T15:10:57.621Z,7.40
2022-12-23T15:13:27.295Z,5.70
2022-12-23T15:16:00.967Z,5.28
2022-12-23T15:18:28.951Z,8.32
2022-12-23T15:21:03.028Z,5.17
2022-12-23T15:23:30.079Z,7.95
2022-12-23T15:26:00.116Z,6.43
2022-12-23T15:28:40.960Z,5.43
2022-12-23T15:31:46.826Z,6.82
2022-12-23T15:34:22.067Z,7.78
2022-12-23T15:36:49.026Z,6.00
2022-12-23T15:39:20.582Z,5.20
2022-12-23T15:41:48.364Z,6.75
2022-12-23T15:44:20.016Z,4.53
2022-12-23T15:46:46.649Z,6.13
2022-12-23T15:49:13.404Z,6.32
2022-12-23T15:54:34.865Z,5.45
2022-12-23T15:57:03.250Z,7.35
2022-12-23T15:59:35.108Z,9.57
2022-12-23T16:02:49.696Z,7.40
2022-12-23T16:05:05.210Z,8.45
2022-12-23T16:07:37.894Z,6.97
2022-12-23T16:10:20.144Z,8.65
2022-12-23T16:12:50.339Z,8.55
2022-12-23T16:15:29.630Z,10.13
2022-12-23T16:18:46.950Z,10.02
2022-12-23T16:21:14.939Z,9.38
2022-12-23T16:23:50.420Z,9.93
2022-12-23T16:26:17.186Z,8.57
2022-12-23T16:28:47.322Z,8.30
2022-12-23T16:31:17.310Z,8.25
2022-12-23T16:34:00.146Z,3.58
2022-12-23T16:36:26.781Z,4.05
2022-12-23T16:38:59.526Z,5.00
2022-12-23T16:41:26.328Z,4.05
2022-12-23T16:43:53.241Z,7.43
2022-12-23T16:46:21.725Z,3.47
2022-12-23T16:48:55.460Z,3.22
2022-12-23T16:51:23.463Z,0.85
2022-12-23T16:53:52.479Z,2.33
2022-12-23T16:56:20.979Z,2.50
2022-12-23T16:58:47.793Z,1.90
2022-12-23T17:01:18.052Z,2.25
2022-12-23T17:03:44.649Z,2.08
2022-12-23T17:06:14.067Z,2.47
2022-12-23T17:08:41.216Z,1.05
2022-12-23T17:11:20.060Z,2.03
2022-12-23T17:13:47.179Z,2.97
2022-12-23T17:19:00.750Z,4.60
2022-12-23T17:27:13.161Z,4.55
2022-12-23T17:29:39.894Z,3.70
2022-12-23T17:32:10.432Z,7.97
2022-12-23T17:34:36.956Z,6.43
2022-12-23T17:37:12.709Z,2.88
2022-12-23T17:39:39.362Z,6.43
2022-12-23T17:42:06.065Z,5.57
2022-12-23T17:44:32.685Z,7.28
2022-12-23T17:46:59.240Z,7.40
2022-12-23T17:49:25.686Z,4.88
2022-12-23T17:51:52.255Z,9.57
2022-12-23T17:54:24.551Z,5.53
2022-12-23T17:56:51.727Z,10.70
2022-12-23T17:59:19.569Z,9.40
2022-12-23T18:01:46.281Z,4.88
2022-12-23T18:04:12.834Z,8.85
2022-12-23T18:06:39.363Z,10.30
2022-12-23T18:09:07.090Z,12.60
2022-12-23T18:11:41.252Z,11.27
2022-12-23T18:14:14.809Z,8.75
2022-12-23T18:16:41.308Z,13.38
2022-12-23T18:19:17.585Z,9.95
2022-12-23T18:21:44.269Z,9.63
2022-12-23T18:24:11.034Z,11.90
2022-12-23T18:26:37.681Z,20.88
2022-12-23T18:29:04.434Z,4.32
2022-12-23T18:31:31.230Z,12.45
2022-12-23T18:33:57.884Z,11.90
2022-12-23T18:36:27.739Z,11.00
2022-12-23T18:38:54.760Z,12.55
2022-12-23T18:41:22.454Z,15.43
2022-12-23T18:43:49.853Z,24.55
2022-12-23T18:46:16.968Z,22.45
2022-12-23T18:48:43.631Z,13.53
2022-12-23T18:51:17.524Z,12.75
2022-12-23T18:53:45.302Z,16.23
2022-12-23T18:58:40.031Z,15.95
2022-12-23T19:01:11.439Z,7.63
2022-12-23T19:03:38.057Z,16.00
2022-12-23T19:06:07.333Z,15.13
2022-12-23T19:08:35.692Z,15.35
2022-12-23T19:11:02.642Z,17.02
2022-12-23T19:13:29.216Z,11.93
2022-12-23T19:15:55.809Z,13.30
2022-12-23T19:18:22.870Z,8.05
2022-12-23T19:20:49.778Z,15.00
2022-12-23T19:23:17.094Z,14.60
2022-12-23T19:25:52.584Z,9.77
2022-12-23T19:28:21.939Z,17.02
2022-12-23T19:30:48.752Z,10.93
2022-12-23T19:33:15.818Z,13.98
2022-12-23T19:35:42.875Z,14.07
2022-12-23T19:38:09.867Z,13.13
2022-12-23T19:40:36.635Z,16.27
2022-12-23T19:43:03.721Z,18.75
2022-12-23T19:45:30.237Z,21.17
2022-12-23T19:47:56.831Z,17.23
2022-12-23T19:50:23.472Z,16.10
2022-12-23T19:52:52.815Z,10.45
2022-12-23T19:55:19.356Z,6.20
2022-12-23T19:57:45.891Z,17.30
2022-12-23T20:00:12.915Z,11.45
2022-12-23T20:02:39.484Z,12.13
2022-12-23T20:05:06.575Z,8.52
2022-12-23T20:07:35.431Z,10.47
2022-12-23T20:10:02.452Z,18.45
2022-12-23T20:12:28.936Z,14.17
2022-12-23T20:14:55.646Z,15.98
2022-12-23T20:17:22.177Z,13.35
2022-12-23T20:19:48.671Z,10.40
2022-12-23T20:22:15.287Z,10.25
2022-12-23T20:24:41.857Z,16.20
2022-12-23T20:27:11.725Z,17.25
2022-12-23T20:29:39.775Z,13.77
2022-12-23T20:32:06.325Z,8.27
2022-12-23T20:34:38.624Z,10.73
2022-12-23T20:37:06.625Z,8.02
2022-12-23T20:39:33.322Z,12.45
2022-12-23T20:41:59.858Z,15.30
2022-12-23T20:44:35.724Z,13.88
2022-12-23T20:47:05.523Z,17.33
2022-12-23T20:49:32.351Z,7.32
2022-12-23T20:51:58.903Z,19.45
2022-12-23T20:54:32.108Z,16.48
2022-12-23T20:57:01.157Z,6.97
2022-12-23T20:59:27.835Z,14.60
2022-12-23T21:01:54.974Z,5.55
2022-12-23T21:04:22.662Z,10.65
2022-12-23T21:06:49.409Z,7.93
2022-12-23T21:09:16.053Z,17.35
2022-12-23T21:11:44.688Z,11.95
2022-12-23T21:14:12.734Z,14.90
2022-12-23T21:16:40.425Z,6.57
2022-12-23T21:19:09.118Z,8.57
2022-12-23T21:21:35.756Z,10.18
2022-12-23T21:24:04.699Z,14.23
2022-12-23T21:26:32.929Z,10.57
2022-12-23T21:31:28.325Z,6.93
2022-12-23T21:33:56.613Z,10.25
2022-12-23T21:36:26.108Z,8.05
2022-12-23T21:38:53.173Z,4.22
2022-12-23T21:41:22.352Z,6.53
2022-12-23T21:43:49.964Z,6.18
2022-12-23T21:46:21.598Z,10.00
2022-12-23T21:48:48.759Z,11.27
2022-12-23T21:51:16.690Z,10.73
2022-12-23T21:56:13.340Z,14.07
2022-12-23T21:58:43.027Z,7.57
2022-12-23T22:01:12.522Z,12.25
2022-12-23T22:03:39.574Z,9.70
2022-12-23T22:06:13.828Z,7.67
2022-12-23T22:08:40.521Z,13.52
2022-12-23T22:11:12.882Z,17.45
2022-12-23T22:13:40.024Z,10.02
2022-12-23T22:16:18.342Z,17.97
2022-12-23T22:18:45.571Z,7.32
2022-12-23T22:21:17.874Z,19.03
2022-12-23T22:23:46.451Z,15.85
2022-12-23T22:26:18.837Z,10.45
2022-12-23T22:28:50.652Z,7.68
2022-12-23T22:31:21.097Z,15.43
2022-12-23T22:33:47.820Z,5.43
2022-12-23T22:36:17.873Z,17.95
2022-12-23T22:38:44.450Z,10.00
2022-12-23T22:41:11.198Z,14.57
2022-12-23T22:43:38.186Z,14.55
2022-12-23T22:46:05.176Z,11.13
2022-12-23T22:48:32.240Z,22.75
2022-12-23T22:51:03.133Z,6.40
2022-12-23T22:53:30.404Z,21.20
2022-12-23T22:56:01.094Z,16.90
2022-12-23T22:58:28.825Z,9.68
2022-12-23T23:00:55.773Z,10.27
2022-12-23T23:03:22.442Z,14.13
2022-12-23T23:06:05.052Z,14.60
2022-12-23T23:08:34.241Z,11.98
2022-12-23T23:11:03.134Z,17.40
2022-12-23T23:13:32.435Z,8.88
2022-12-23T23:15:59.079Z,8.70
2022-12-23T23:18:26.663Z,11.55
2022-12-23T23:20:53.487Z,5.63
2022-12-23T23:23:20.252Z,6.97
2022-12-23T23:25:46.873Z,14.43
2022-12-23T23:28:14.273Z,11.25
2022-12-23T23:30:41.448Z,15.55
2022-12-23T23:33:09.435Z,18.60
2022-12-23T23:35:36.894Z,18.63
2022-12-23T23:38:03.561Z,14.93
2022-12-23T23:40:30.058Z,12.07
2022-12-23T23:42:56.555Z,14.10
2022-12-23T23:45:23.177Z,23.10
2022-12-23T23:47:49.704Z,16.58
2022-12-23T23:50:16.342Z,17.58
2022-12-23T23:52:42.923Z,18.42
2022-12-23T23:55:09.727Z,17.20
2022-12-23T23:57:36.221Z,21.80
